Chesterfield, Missouri
Current Conditions -  °F | °C
As of 7:54 AM on Tuesday 27 Jan 2015 (Local Time) from KSUS Reporting Station
Clear Clear  
Wind Chill: -2°   Ceiling: Unl
Heat Index:   Visibility: 10mi
Dew Point: -1°   Wind: 5mph
Humidity: 89%   Direction: 260°W
Pressure: 30.1"   Gusts: NA
Location:  38.65°N, 90.55°W
Report Text: KSUS 271354Z 26004KT 10SM CLR 01/M01 A3010 RMK AO2 SLP202 T00061011
Loading
Personal Weather Stations






























Interactive Weather Map New forecast layout! Learn more

10-Day Weather Forecast

Advertisements
Track Severe Weather on mobile